Date,TemperatureHighF,TemperatureAvgF,TemperatureLowF,DewpointHighF,DewpointAvgF,DewpointLowF,HumidityHigh,HumidityAvg,HumidityLow,PressureMaxIn,PressureMinIn,WindSpeedMaxMPH,WindSpeedAvgMPH,GustSpeedMaxMPH,PrecipitationSumIn
2013-1-1,32.7,26.7,22.3,31.6,19.6,13.5,97,74,67,30.09,29.65,11,4,16,0.00
2013-1-2,24.6,22.1,12.9,20.2,15.4,8.2,92,75,69,30.22,30.04,11,3,15,0.00
2013-1-3,30.2,22.2,12.9,24.4,16.2,7.9,86,77,63,30.21,30.05,10,4,18,0.00
2013-1-4,35.1,29.5,26.6,24.4,18.8,14.6,83,65,45,30.19,30.03,14,7,22,0.00
2013-1-5,34.2,30.1,26.8,24.4,22.4,20.2,82,73,64,30.33,30.09,9,4,15,0.00
2013-1-6,37.0,34.2,32.5,33.4,29.4,24.2,99,83,69,30.19,29.93,12,4,18,0.05
2013-1-7,37.9,32.6,27.5,32.2,26.4,22.0,95,78,58,30.41,30.20,11,3,19,0.02
2013-1-8,42.3,32.0,22.8,25.8,23.3,20.9,93,72,51,30.30,30.22,8,4,12,0.00
2013-1-9,50.4,38.7,28.8,36.8,28.1,25.2,88,67,43,30.46,30.11,18,6,30,0.03
2013-1-10,47.7,35.0,24.4,37.8,27.4,23.6,99,75,55,30.60,30.26,8,2,11,0.00
2013-1-11,50.7,45.9,39.2,50.5,39.2,23.3,99,80,48,30.26,29.82,15,6,25,0.40
2013-1-12,61.5,53.4,46.9,56.4,51.8,46.7,99,94,78,30.03,29.89,11,4,14,0.00
2013-1-13,64.2,53.7,38.8,58.7,51.7,38.4,99,93,80,29.98,29.75,16,5,24,0.32
2013-1-14,38.7,31.0,27.5,38.4,26.0,20.3,99,82,68,30.42,29.98,16,6,24,0.00
2013-1-15,36.5,28.7,26.8,22.4,20.3,18.5,78,71,53,30.42,30.11,8,3,13,0.00
2013-1-16,37.0,31.6,27.3,27.2,22.8,20.2,83,70,54,30.11,29.86,10,2,18,0.00
2013-1-17,35.8,32.4,24.1,29.2,24.8,15.9,87,73,60,30.22,29.97,19,6,26,0.00
2013-1-18,34.2,26.1,19.2,18.6,13.4,5.9,72,58,45,30.46,30.07,20,8,29,0.00
2013-1-19,52.2,44.3,34.2,28.8,23.5,17.0,51,44,37,30.09,29.67,13,7,22,0.00
2013-1-20,48.4,29.3,21.6,32.0,17.8,11.3,75,62,45,30.14,29.63,28,10,46,0.03
2013-1-21,25.2,18.4,10.8,17.2,13.2,7.0,92,81,51,30.11,29.89,16,5,27,0.00
2013-1-22,10.8,8.4,6.6,7.2,2.9,-0.6,87,78,63,30.23,30.02,20,9,31,0.00
2013-1-23,17.6,11.5,8.2,13.7,8.1,5.0,89,86,82,30.23,30.05,5,2,8,0.00
2013-1-24,19.9,14.8,8.4,13.2,6.4,0.0,90,70,43,30.53,30.05,20,5,27,0.00
2013-1-25,20.7,13.6,7.3,13.4,8.1,2.8,90,78,67,30.49,30.02,8,2,12,0.00
2013-1-26,32.2,20.9,15.8,23.6,16.8,13.2,92,84,66,30.43,30.06,8,2,13,0.03
2013-1-27,31.5,23.9,14.0,23.9,15.8,11.4,94,73,51,30.51,30.26,8,3,13,0.02
2013-1-28,45.9,37.9,26.4,45.6,37.4,23.9,99,98,90,30.26,29.91,12,5,21,0.19
2013-1-29,58.5,47.9,35.4,55.7,47.1,35.2,99,97,81,30.06,29.67,10,4,19,0.24
2013-1-30,62.1,56.8,37.9,57.6,52.4,35.6,99,86,70,29.66,29.14,24,8,36,0.51
2013-1-31,38.7,25.8,18.3,35.5,21.3,13.2,98,83,62,29.83,29.24,25,11,40,0.05
2013-2-1,19.2,16.7,13.8,17.3,11.9,4.5,95,81,64,30.27,29.82,17,8,27,0.00
2013-2-2,21.2,16.6,11.8,20.2,12.7,4.2,97,84,66,30.27,29.95,8,4,14,0.00
2013-2-3,23.5,18.7,17.6,20.6,16.0,10.1,97,89,69,29.97,29.84,11,3,18,0.02
2013-2-4,29.8,21.2,16.0,20.0,15.8,7.9,94,80,61,30.02,29.87,12,3,17,0.00
2013-2-5,35.6,24.8,18.3,23.8,19.5,15.8,99,82,50,29.92,29.83,7,1,14,0.03
2013-2-6,32.7,24.1,12.7,27.0,16.1,8.9,97,73,48,30.34,29.92,17,4,27,0.02
2013-2-7,45.9,30.5,11.7,25.9,18.4,6.7,83,62,38,30.31,29.90,12,4,21,0.00
2013-2-8,37.2,29.5,20.8,35.0,25.9,16.0,99,87,70,30.22,29.75,19,9,27,0.29
2013-2-9,38.3,24.1,15.1,23.6,16.7,12.9,92,75,45,30.41,30.22,14,4,21,0.00
2013-2-10,48.9,33.3,14.9,23.1,16.4,12.0,92,54,24,30.33,29.84,16,5,24,0.00
2013-2-11,55.4,39.9,33.3,45.5,32.8,22.7,99,76,43,29.88,29.64,21,9,36,0.00
2013-2-12,33.4,30.6,24.3,27.4,24.6,21.3,94,78,70,30.06,29.87,14,6,23,0.00
2013-2-13,43.2,29.1,23.0,28.3,24.8,21.2,98,84,51,29.92,29.74,8,2,13,0.00
2013-2-14,38.8,29.3,22.3,35.2,27.1,21.6,99,92,68,29.87,29.80,14,4,26,0.02
2013-2-15,37.4,31.3,24.6,28.2,23.2,17.2,81,72,55,30.09,29.85,16,6,31,0.02
2013-2-16,30.0,24.0,18.9,23.6,14.3,5.0,96,68,38,30.08,29.95,11,2,14,0.02
2013-2-17,22.6,17.5,8.6,18.1,12.4,4.1,95,80,65,30.24,29.94,13,4,17,0.00
2013-2-18,42.8,25.7,5.9,28.5,14.2,3.0,91,64,44,30.25,29.76,16,6,26,0.00
2013-2-19,44.8,32.3,18.9,39.9,28.2,14.1,99,86,56,29.91,29.59,17,8,30,0.29
2013-2-20,20.8,18.8,16.2,17.1,13.6,9.8,96,80,64,30.17,29.90,16,7,25,0.00
2013-2-21,23.2,19.7,16.9,16.8,13.4,11.0,86,76,67,30.37,30.16,15,5,19,0.00
2013-2-22,36.3,28.6,16.7,35.5,24.8,12.5,99,86,67,30.30,29.94,14,6,24,0.03
2013-2-23,38.5,33.2,28.9,35.1,28.2,23.2,99,82,56,29.97,29.88,11,4,18,0.00
2013-2-24,34.0,27.9,21.4,25.8,22.7,19.5,95,81,67,30.14,29.88,14,5,19,0.00
2013-2-25,46.6,30.3,18.7,33.7,22.7,17.8,99,76,40,30.23,30.09,11,2,14,0.00
2013-2-26,41.2,34.0,26.1,35.6,27.7,19.7,98,79,55,30.12,29.57,12,5,22,0.81
2013-2-27,42.8,37.6,33.6,40.9,36.1,32.5,99,95,82,29.65,29.52,13,3,17,0.24
2013-2-28,35.6,33.3,30.9,34.3,31.8,28.9,99,94,85,29.85,29.57,14,5,21,0.08
2013-3-1,30.9,27.3,24.3,29.1,23.4,20.5,94,85,80,30.01,29.84,14,7,21,0.00
2013-3-2,26.1,24.3,22.6,24.1,21.2,18.8,97,88,82,30.00,29.95,12,6,21,0.00
2013-3-3,26.6,24.3,22.3,24.0,20.6,15.6,98,86,67,30.02,29.94,14,7,21,0.00
2013-3-4,32.7,25.0,17.1,21.6,17.6,14.2,89,74,57,30.11,30.01,12,4,17,0.00
2013-3-5,39.7,26.6,16.0,27.6,21.4,13.1,96,82,54,30.12,29.75,9,3,16,0.00
2013-3-6,45.1,34.2,29.7,31.7,28.2,24.5,97,79,50,30.15,29.75,15,4,17,0.00
2013-3-7,37.9,32.8,29.8,34.5,31.5,26.5,99,95,85,30.35,30.15,11,4,16,0.00
2013-3-8,41.0,32.3,26.2,33.3,29.1,25.8,99,88,68,30.43,30.34,11,4,18,0.00
2013-3-9,54.9,38.1,21.7,33.9,28.2,21.5,99,71,43,30.43,30.14,8,2,14,0.00
2013-3-10,71.4,56.7,43.0,39.7,31.8,25.1,62,39,27,30.15,29.90,12,6,22,0.00
2013-3-11,59.0,54.0,43.0,47.9,38.1,31.1,99,58,35,29.91,29.60,15,6,24,0.92
2013-3-12,43.0,36.4,33.1,41.2,31.4,24.4,94,82,69,29.97,29.75,13,5,21,0.00
2013-3-13,33.3,29.9,26.1,28.7,24.4,16.1,97,80,56,30.10,29.88,20,7,28,0.00
2013-3-14,33.8,28.1,24.1,22.5,17.0,11.6,77,63,51,30.22,30.09,20,8,27,0.00
2013-3-15,37.9,32.5,26.1,33.7,27.7,18.5,99,83,70,30.09,29.85,15,4,21,0.00
2013-3-16,32.4,29.6,26.4,32.1,28.0,23.6,99,94,82,30.02,29.72,9,2,13,0.00
2013-3-17,36.7,28.4,22.5,26.7,20.6,15.0,98,74,48,30.25,30.01,13,3,18,0.00
2013-3-18,36.3,31.3,22.3,36.1,27.2,4.2,99,85,27,30.22,29.63,18,6,31,0.30
2013-3-19,36.5,30.8,25.5,36.2,25.1,18.4,99,79,61,29.92,29.69,19,7,27,0.05
2013-3-20,33.6,27.3,20.8,26.9,18.9,14.3,96,71,51,29.93,29.87,21,8,33,0.02
2013-3-21,30.0,23.9,16.2,27.1,20.1,11.7,99,86,62,29.89,29.82,13,5,20,0.00
2013-3-22,33.3,27.2,22.3,26.4,21.5,16.6,99,80,61,30.01,29.86,15,6,21,0.00
2013-3-23,42.3,29.0,18.7,31.9,21.3,16.4,95,74,49,30.08,29.99,10,2,14,0.02
2013-3-24,37.2,28.5,16.5,27.3,21.5,15.6,97,77,50,30.05,29.58,15,3,24,0.00
2013-3-25,37.6,33.1,29.7,34.5,30.6,25.5,99,91,75,29.81,29.50,13,4,28,0.06
2013-3-26,39.9,34.9,32.2,34.5,32.0,-13.0,99,89,71,30.07,29.80,11,5,105,0.00
2013-3-27,40.6,35.4,32.7,32.9,30.4,27.3,99,83,62,30.15,30.04,14,6,20,0.05
2013-3-28,40.1,35.3,32.2,34.3,32.2,29.9,99,89,74,30.26,30.13,9,3,12,0.18
2013-3-29,50.7,40.5,30.0,33.7,29.0,22.1,88,66,36,30.26,30.20,11,3,16,0.00
2013-3-30,58.8,41.7,26.8,31.1,23.7,7.8,89,54,22,30.24,30.00,49,2,49,0.00
2013-3-31,130.5,46.5,37.0,99.9,34.1,23.1,98,64,39,30.00,29.66,10,4,14,0.10
2013-4-1,46.8,36.0,29.7,43.3,25.0,-9.8,95,66,42,30.06,29.65,17,8,26,0.10
2013-4-2,38.7,31.5,25.9,22.7,17.3,12.3,78,56,39,30.18,30.05,14,7,23,0.00
2013-4-3,35.2,30.3,23.0,22.1,16.3,12.3,73,56,40,30.45,30.18,17,6,25,0.00
2013-4-4,59.9,36.4,22.3,19.2,13.2,-2.0,74,45,10,30.39,29.95,8,2,11,0.00
2013-4-5,43.2,36.4,27.0,31.7,23.2,15.7,76,59,47,30.21,29.92,17,6,24,0.00
2013-4-6,55.9,39.5,20.1,25.2,15.3,4.0,90,47,14,30.29,29.93,11,4,17,0.00
2013-4-7,72.5,55.8,38.7,47.3,33.4,8.8,80,46,17,30.05,29.78,21,8,28,0.00
2013-4-8,73.4,54.4,30.6,53.3,41.8,30.1,99,67,40,30.07,29.81,16,4,24,0.00
2013-4-9,78.1,57.6,43.9,55.1,46.6,41.5,97,70,41,30.15,29.84,14,4,23,0.00
2013-4-10,54.7,46.7,40.1,54.4,46.0,39.8,99,98,81,29.99,29.83,21,3,34,0.89
2013-4-11,41.4,39.4,37.0,41.1,39.2,36.8,99,99,99,29.99,29.64,14,4,24,0.22
2013-4-12,52.3,42.5,39.7,52.1,39.9,32.5,99,91,71,29.85,29.48,17,5,29,0.43
2013-4-13,44.1,40.2,36.5,39.4,34.7,29.7,98,81,60,30.02,29.84,17,5,24,0.18
2013-4-14,51.6,42.8,32.2,35.9,33.2,29.3,91,70,54,30.15,30.01,5,2,10,0.00
2013-4-15,74.3,60.6,46.0,50.1,43.4,34.1,70,54,37,30.07,29.97,14,5,22,0.00
2013-4-16,66.0,55.8,49.6,61.2,51.9,47.7,99,88,67,30.22,29.98,11,4,22,0.53
2013-4-17,60.6,51.5,43.3,49.6,38.4,27.5,99,64,37,30.34,30.09,12,4,22,0.00
2013-4-18,85.8,69.7,47.5,62.8,55.5,38.3,92,64,34,30.12,29.68,20,7,24,0.00
2013-4-19,70.2,53.9,40.8,60.7,44.4,27.2,99,71,55,29.83,29.41,19,7,30,0.41
2013-4-20,43.2,36.6,29.3,33.0,27.4,22.7,98,70,47,30.43,29.83,17,7,28,0.00
2013-4-21,47.5,36.7,25.2,34.6,25.5,19.3,97,67,34,30.64,30.43,14,3,22,0.00
2013-4-22,66.2,51.1,33.4,36.1,28.8,23.5,78,45,27,30.49,30.26,11,4,17,0.00
2013-4-23,74.5,58.8,42.8,39.5,33.5,23.9,66,41,23,30.27,29.90,11,6,21,0.00
2013-4-24,63.1,47.6,35.4,55.1,42.3,35.2,99,85,36,30.15,29.73,15,6,23,0.73
2013-4-25,81.1,42.2,32.0,80.6,35.1,27.2,99,79,36,30.35,30.15,16,3,30,0.08
2013-4-26,60.1,44.8,29.8,40.5,32.0,26.2,99,66,30,30.50,30.35,11,2,15,0.02
2013-4-27,74.5,53.7,33.4,41.9,33.3,24.7,92,53,18,30.41,30.14,10,2,14,0.00
2013-4-28,62.4,56.6,54.0,55.5,46.0,35.0,99,71,42,30.14,29.93,13,5,21,0.27
2013-4-29,73.4,59.1,54.1,71.9,56.5,49.3,99,91,71,30.02,29.94,11,2,12,0.24
2013-4-30,102.0,65.5,52.9,58.6,46.9,5.3,99,57,10,30.17,30.02,12,4,20,0.00
2013-5-1,81.1,67.5,55.6,56.6,50.8,23.0,84,58,28,30.30,30.17,50,5,50,0.00
2013-5-2,101.3,67.8,0.3,50.5,36.0,-14.2,51,33,10,30.36,30.20,49,4,49,0.00
2013-5-3,78.8,67.8,55.9,42.3,36.9,26.7,53,33,19,30.24,30.14,15,6,23,0.00
2013-5-4,74.8,63.0,52.5,43.1,37.8,-16.8,67,42,18,30.22,30.10,60,4,96,0.00
2013-5-5,104.9,64.8,49.3,99.9,35.2,-15.3,89,39,10,30.17,30.03,56,3,56,0.26
2013-5-6,77.7,62.5,49.1,50.1,37.8,25.7,69,42,21,30.11,30.00,10,3,14,0.00
2013-5-7,75.6,64.3,50.5,56.5,52.9,49.6,99,69,43,30.08,29.99,10,2,17,0.00
2013-5-8,75.6,62.2,53.6,60.6,55.8,52.1,99,82,50,30.02,29.96,7,1,11,0.18
2013-5-9,78.8,64.4,53.8,61.5,52.7,37.5,99,72,26,30.01,29.94,6,1,10,0.00
2013-5-10,76.8,62.3,34.7,62.9,56.1,7.2,99,82,31,29.99,29.78,15,2,26,1.21
2013-5-11,59.7,48.5,42.3,59.5,46.5,-6.2,99,93,69,29.88,29.80,16,3,27,0.11
2013-5-12,51.3,43.6,34.2,43.6,34.3,26.9,99,72,46,30.08,29.87,19,7,30,0.02
2013-5-13,51.4,41.9,32.0,33.1,28.2,24.3,92,59,38,30.19,30.06,10,4,18,0.00
2013-5-14,55.0,44.8,31.1,38.6,33.9,29.1,93,68,50,30.18,29.87,12,3,22,0.00
2013-5-15,82.6,66.0,50.0,61.6,50.2,38.3,89,59,33,29.86,29.69,15,4,26,0.02
2013-5-16,79.9,64.2,47.3,60.4,44.9,-5.6,99,59,10,30.01,29.78,12,2,17,0.00
2013-5-17,71.4,60.5,45.0,55.4,44.6,7.2,92,58,14,30.18,30.01,9,3,15,0.00
2013-5-18,101.1,65.6,54.1,57.4,47.9,34.6,74,55,10,30.19,30.08,12,2,19,0.06
2013-5-19,86.2,72.3,58.8,66.5,61.2,50.9,93,70,45,30.11,29.96,7,3,12,0.00
2013-5-20,91.4,76.5,61.2,70.0,65.2,60.9,99,71,42,30.03,29.87,6,2,11,0.00
2013-5-21,90.9,77.6,68.5,71.6,67.2,62.4,99,73,41,29.93,29.79,6,2,11,0.00
2013-5-22,89.2,77.2,65.8,67.0,63.0,56.9,96,65,37,29.85,29.71,8,2,15,0.03
2013-5-23,78.3,60.6,43.3,68.6,58.5,43.1,99,93,59,30.02,29.75,11,3,25,0.54
2013-5-24,47.8,42.3,32.4,43.3,36.4,30.8,99,80,64,30.32,30.02,13,6,21,0.00
2013-5-25,60.4,47.1,32.0,46.1,36.3,30.4,99,70,37,30.36,30.27,11,3,22,0.00
2013-5-26,66.0,50.6,33.8,49.0,37.1,29.3,99,65,28,30.33,30.25,12,2,17,0.00
2013-5-27,73.8,53.8,34.3,51.8,41.8,32.4,99,71,23,30.30,30.12,8,1,11,0.11
2013-5-28,82.6,64.7,51.6,71.5,61.5,50.5,99,91,60,30.13,29.90,10,2,14,1.29
2013-5-29,89.6,76.3,64.6,68.6,65.4,61.4,99,71,39,30.06,29.93,11,2,18,0.02
2013-5-30,94.3,75.5,62.6,75.1,66.2,61.6,99,76,39,30.18,30.05,14,1,24,0.59
2013-5-31,91.9,75.0,64.8,74.3,66.0,61.9,99,77,39,30.11,29.97,11,2,20,0.69
2013-6-1,87.4,73.8,65.5,70.8,67.5,64.9,99,83,56,30.00,29.79,9,2,17,0.37
2013-6-2,79.0,69.9,57.2,71.0,61.9,52.6,99,78,50,29.97,29.77,14,4,23,0.49
2013-6-3,61.9,54.8,44.2,53.0,45.1,35.1,97,71,43,30.12,29.96,11,4,17,0.00
2013-6-4,67.6,55.5,41.2,52.8,43.9,38.5,99,70,37,30.21,30.11,8,2,13,0.00
2013-6-5,76.3,60.4,45.1,55.5,48.0,43.6,99,68,35,30.20,29.98,12,3,21,0.00
2013-6-6,62.1,58.0,54.1,61.6,57.1,51.3,99,97,78,29.98,29.81,8,2,13,0.97
2013-6-7,60.4,56.0,54.3,59.8,55.6,54.1,99,98,91,29.92,29.86,8,3,13,0.02
2013-6-8,71.2,60.5,51.3,59.6,55.4,51.0,99,85,54,30.14,29.91,8,1,12,0.00
2013-6-9,80.6,65.8,48.2,61.6,55.6,47.8,99,74,40,30.20,30.03,6,1,11,0.00
2013-6-10,76.6,69.1,62.6,73.1,66.8,57.9,99,93,67,30.02,29.76,12,2,20,0.49
2013-6-11,77.0,66.9,61.7,69.4,64.0,61.4,99,91,66,29.91,29.78,10,2,17,0.02
2013-6-12,80.6,70.0,60.1,69.9,65.0,59.8,99,86,60,29.95,29.76,7,1,9,0.46
2013-6-13,70.5,63.3,56.5,67.4,62.8,56.0,99,98,83,29.87,29.46,11,3,18,1.51
2013-6-14,72.7,62.0,51.6,62.9,57.1,51.2,99,85,57,30.10,29.86,8,2,13,0.02
2013-6-15,86.7,66.2,45.3,61.4,54.0,45.1,99,70,30,30.16,30.01,4,1,9,0.02
2013-6-16,79.7,70.6,63.7,67.6,63.4,58.1,99,79,62,30.02,29.81,13,4,21,0.00
2013-6-17,86.2,72.6,58.6,69.6,63.1,58.4,99,76,46,30.02,29.90,16,2,25,0.14
2013-6-18,70.9,63.8,50.9,65.9,57.1,45.8,99,80,49,30.06,29.89,16,4,26,0.51
2013-6-19,72.9,61.1,46.2,59.7,49.1,41.3,99,69,37,30.21,30.06,10,2,15,0.00
2013-6-20,83.8,64.9,46.4,59.3,49.0,31.7,99,64,19,30.27,30.20,10,1,14,0.00
2013-6-21,92.1,71.8,50.7,63.4,57.5,50.1,99,66,31,30.29,30.16,7,1,9,0.00
2013-6-22,94.8,78.6,62.4,71.0,65.5,59.5,97,67,42,30.19,30.04,5,1,11,0.00
2013-6-23,95.9,80.9,67.1,73.2,68.5,63.3,99,69,36,30.14,30.04,7,1,13,0.00
2013-6-24,95.4,79.9,65.5,71.8,68.5,64.5,99,71,43,30.13,29.98,8,1,13,0.02
2013-6-25,92.5,75.6,66.4,72.8,68.1,63.4,99,80,43,30.03,29.88,27,3,42,0.54
2013-6-26,89.2,77.0,65.7,74.2,68.8,65.4,99,78,52,29.97,29.81,8,2,13,0.43
2013-6-27,85.5,70.7,66.2,72.4,68.5,65.9,99,94,57,29.82,29.69,9,2,17,0.85
2013-6-28,79.2,70.7,62.8,74.1,66.3,62.1,99,87,66,29.69,29.54,10,2,16,0.05
2013-6-29,81.5,68.2,62.6,69.4,64.7,62.3,99,90,60,29.74,29.54,6,1,11,1.77
2013-6-30,77.7,68.6,61.5,68.7,63.8,61.3,99,86,64,29.93,29.74,10,3,14,0.03
2013-7-1,70.7,67.2,64.2,69.0,66.1,63.8,99,96,87,30.05,29.91,10,3,17,0.00
2013-7-2,83.3,69.7,61.7,70.4,65.7,61.4,99,88,65,30.10,30.00,8,2,13,0.00
2013-7-3,94.5,75.0,62.2,75.5,68.6,62.0,99,83,42,30.18,30.09,8,1,16,0.30
2013-7-4,86.7,75.6,69.3,76.1,70.0,67.1,99,84,57,30.22,30.15,5,1,9,0.08
2013-7-5,87.1,74.2,68.0,74.1,69.6,67.3,99,87,57,30.18,30.12,6,1,10,0.16
2013-7-6,94.8,77.0,66.7,75.4,70.2,66.5,99,83,47,30.18,30.04,8,1,14,0.18
2013-7-7,86.0,75.1,68.4,72.1,68.5,64.2,99,82,54,30.11,30.01,6,1,10,0.02
2013-7-8,93.0,74.8,65.7,73.9,68.6,65.4,99,84,49,30.12,30.03,10,1,18,0.70
2013-7-9,88.2,76.1,68.4,77.3,72.3,68.1,99,89,66,30.09,29.94,8,1,13,0.16
2013-7-10,95.0,77.5,69.8,78.1,73.0,67.8,99,88,55,29.97,29.78,6,2,11,0.45
2013-7-14,95.7,82.4,72.1,75.2,72.9,69.1,99,75,50,30.29,30.26,7,1,10,0.00
2013-7-15,93.4,81.0,69.3,80.2,73.2,69.0,99,80,54,30.35,30.27,7,1,11,0.00
2013-7-16,94.5,81.8,71.2,82.0,74.0,71.0,99,80,51,30.34,30.26,6,1,11,0.00
2013-7-17,93.4,82.4,72.3,80.9,74.2,71.6,99,79,51,30.30,30.17,7,2,14,0.00
2013-7-18,94.5,83.6,72.3,81.0,74.3,69.3,99,76,47,30.19,30.02,9,1,13,0.00
2013-7-19,97.5,83.7,68.5,77.1,73.4,64.9,99,74,44,30.03,29.82,15,2,40,0.16
2013-7-20,84.6,72.6,66.9,75.5,69.5,66.7,99,91,62,29.94,29.82,8,1,14,2.34
2013-7-21,88.3,73.8,63.3,74.2,66.0,61.9,99,79,43,30.01,29.94,9,2,12,0.02
2013-7-22,84.4,69.9,60.8,73.8,67.2,60.5,99,92,62,30.01,29.81,6,1,8,0.88
2013-7-23,88.0,73.8,63.9,76.4,67.5,60.2,99,83,51,29.84,29.68,11,2,20,0.33
2013-7-24,71.6,63.3,53.6,60.2,53.2,49.4,99,70,50,30.07,29.83,11,4,19,0.00
2013-7-25,77.0,63.3,48.7,57.8,51.1,46.8,99,69,37,30.15,30.07,10,2,16,0.00
2013-7-26,85.3,68.0,50.7,63.4,57.1,50.5,99,73,35,30.13,30.00,8,1,13,0.00
2013-7-27,72.0,65.4,59.5,69.4,64.5,59.3,99,97,88,30.01,29.83,4,0,10,0.30
2013-7-28,75.6,66.1,57.0,65.6,55.8,45.6,99,73,38,30.04,29.86,7,1,14,0.06
2013-7-29,77.2,63.7,54.9,59.7,55.9,49.2,99,79,43,30.22,30.03,8,1,14,0.02
2013-7-30,80.6,66.6,54.3,66.1,58.7,53.9,99,78,47,30.27,30.18,8,1,11,0.00
2013-7-31,86.0,69.8,56.1,66.2,61.4,55.9,99,78,46,30.19,29.95,4,1,9,0.00
2013-8-1,79.9,70.1,61.7,69.6,65.1,61.4,99,85,60,29.96,29.85,9,2,15,0.26
2013-8-2,82.2,68.9,58.1,66.8,60.2,55.8,99,76,44,29.99,29.91,7,1,11,0.03
2013-8-3,79.0,70.4,58.3,69.6,62.0,53.6,99,78,45,30.03,29.92,8,2,14,0.00
2013-8-4,74.3,65.2,54.3,60.6,56.7,49.5,99,75,57,30.15,30.02,9,3,14,0.00
2013-8-5,78.1,63.5,49.6,62.0,54.1,49.2,99,75,43,30.17,30.04,5,0,9,0.00
2013-8-6,84.0,68.7,54.3,63.6,59.0,53.6,99,75,40,30.07,29.99,7,1,11,0.00
2013-8-7,87.6,71.0,59.4,73.9,66.2,58.9,99,86,55,29.99,29.89,5,1,13,0.21
2013-8-8,86.9,75.0,69.1,77.6,71.9,68.6,99,91,64,29.99,29.94,5,1,8,0.19
2013-8-9,79.5,69.8,59.2,70.1,63.9,51.7,99,84,43,30.04,29.93,8,1,13,0.16
2013-8-10,78.8,67.3,57.2,68.5,57.6,50.2,99,75,41,30.16,30.04,8,2,13,0.00
2013-8-11,85.8,69.3,57.2,68.4,58.6,51.6,99,73,37,30.18,30.07,7,1,14,0.00
2013-8-12,73.0,66.1,59.0,71.5,64.8,58.7,99,96,81,30.10,29.86,6,0,11,0.10
2013-8-13,70.2,64.4,55.8,67.9,57.4,47.4,99,79,56,30.02,29.83,17,3,29,0.91
2013-8-14,71.8,61.3,51.4,57.7,52.2,47.4,99,74,49,30.18,30.01,11,3,17,0.08
2013-8-15,74.7,60.2,48.7,61.1,53.5,48.5,99,81,50,30.22,30.15,6,1,11,0.00
2013-8-16,80.4,63.3,49.1,62.8,54.6,48.8,99,77,39,30.24,30.16,7,1,11,0.00
2013-8-17,84.0,65.9,50.9,63.8,56.7,50.6,99,76,39,30.29,30.23,7,1,12,0.00
2013-8-18,85.1,67.5,53.2,67.1,61.1,52.8,99,82,46,30.26,30.15,5,0,9,0.00
2013-8-19,81.0,70.3,59.4,71.7,64.0,59.1,99,83,51,30.17,30.10,8,1,11,0.00
2013-8-20,85.8,71.2,58.1,67.6,62.0,57.8,99,77,44,30.21,30.12,6,1,10,0.00
2013-8-21,91.4,73.9,59.5,71.0,64.7,59.3,99,77,39,30.22,30.06,6,0,8,0.00
2013-8-22,85.1,73.5,64.0,71.9,67.2,63.8,99,82,55,30.10,30.00,8,1,14,0.00
2013-8-23,81.3,71.5,57.4,69.0,61.4,53.0,99,73,44,30.22,30.03,10,2,14,0.00
2013-8-24,82.9,65.9,50.9,62.2,56.4,49.2,99,76,35,30.36,30.22,9,1,14,0.00
2013-8-25,88.3,70.5,53.1,67.2,59.9,52.8,99,75,32,30.38,30.22,5,1,8,0.00
2013-8-26,90.7,74.3,62.2,70.4,63.9,59.3,99,74,39,30.24,30.00,14,1,20,0.00
2013-8-27,84.4,75.2,68.4,75.7,71.6,67.5,99,90,64,30.02,29.92,8,1,13,0.00
2013-8-28,81.0,72.7,67.8,79.8,71.9,67.6,99,97,83,30.01,29.85,10,1,14,0.02
2013-8-29,88.5,75.2,65.5,77.2,69.4,65.0,99,84,53,30.10,30.00,8,1,12,0.02
2013-8-30,92.1,76.0,63.1,75.1,68.6,62.9,99,81,48,30.06,29.82,5,1,8,0.02
2013-8-31,84.2,74.5,67.1,74.9,70.9,66.7,99,89,66,29.87,29.78,5,1,14,0.21
2013-9-1,86.4,72.1,64.4,75.6,69.7,64.1,99,93,62,29.86,29.78,4,0,8,0.14
2013-9-2,83.5,70.3,63.7,77.1,67.8,60.5,99,92,67,29.89,29.77,8,1,16,0.03
2013-9-3,70.5,62.4,54.7,60.5,57.1,53.9,99,83,66,30.07,29.89,8,2,12,0.00
2013-9-4,79.7,65.8,52.5,62.9,56.7,52.3,99,76,40,30.12,30.05,8,2,15,0.00
2013-9-5,72.0,63.6,48.4,65.6,52.9,45.3,99,70,43,30.26,30.06,11,3,15,0.00
2013-9-6,78.8,59.8,43.2,57.6,49.2,41.9,99,74,32,30.32,30.14,7,1,13,0.00
2013-9-7,85.1,66.3,50.2,68.6,58.4,49.9,99,80,40,30.15,29.94,5,0,10,0.00
2013-9-8,72.7,66.0,53.1,68.1,59.8,49.9,99,82,48,30.12,29.92,13,3,22,0.00
2013-9-9,79.0,64.1,47.8,71.3,60.3,47.4,99,88,67,30.12,30.01,6,1,11,0.00
2013-9-10,100.0,82.3,69.8,76.8,73.0,69.2,99,77,38,30.09,29.99,5,2,11,0.00
2013-9-11,97.0,81.7,70.7,77.2,73.5,67.9,99,79,42,30.11,29.97,13,1,26,0.30
2013-9-12,78.8,68.5,60.1,72.1,66.0,55.4,99,92,64,30.02,29.85,10,1,15,0.40
2013-9-13,62.6,57.0,51.4,59.8,51.6,42.3,99,83,60,30.09,29.88,15,4,23,0.53
2013-9-14,65.8,55.0,44.8,48.4,44.3,40.3,99,69,44,30.19,30.09,9,2,14,0.00
2013-9-15,74.8,57.3,43.7,57.8,51.0,43.4,99,82,49,30.20,30.08,3,0,8,0.02
2013-9-16,69.1,57.0,47.3,65.2,54.5,47.0,99,92,69,30.36,30.12,11,2,17,0.02
2013-9-17,72.7,54.1,38.5,52.8,43.7,34.6,99,75,27,30.45,30.27,8,1,13,0.02
2013-9-18,80.4,59.7,41.4,58.3,50.5,41.1,99,76,39,30.27,30.11,7,1,9,0.02
2013-9-19,78.4,65.7,54.0,66.7,62.2,53.7,99,90,63,30.14,30.02,5,1,11,0.00
2013-9-20,81.1,69.5,62.4,73.0,67.6,62.2,99,94,72,30.05,29.81,8,2,15,1.53
2013-9-21,69.8,62.4,53.8,67.9,61.5,53.3,99,97,74,29.83,29.69,13,1,21,1.79
2013-9-22,59.4,54.7,50.0,56.4,50.3,45.8,99,86,66,30.08,29.83,10,2,17,0.05
2013-9-23,59.9,51.7,40.6,50.7,46.3,40.4,99,83,57,30.20,30.07,5,1,8,0.00
2013-9-24,70.7,52.6,38.1,55.4,46.6,37.9,99,83,48,30.18,30.02,9,1,13,0.02
2013-9-25,75.7,55.4,39.6,56.6,48.4,39.1,99,81,39,30.04,29.96,7,1,11,0.00
2013-9-26,72.3,57.2,41.7,61.1,48.9,41.5,99,78,38,30.16,30.00,11,2,17,0.00
2013-9-27,72.5,58.4,45.5,58.6,52.3,45.2,99,83,50,30.25,30.15,10,2,15,0.00
2013-9-28,80.1,62.1,46.6,58.4,52.5,46.3,99,75,39,30.27,30.15,6,2,13,0.00
2013-9-29,75.9,62.7,52.5,62.9,56.1,50.0,98,80,56,30.15,30.01,5,2,11,0.00
2013-9-30,70.2,62.4,56.5,66.8,61.6,56.2,99,97,83,30.05,29.99,4,0,8,0.19
2013-10-1,81.5,64.8,53.4,69.9,59.3,53.2,99,85,48,30.09,29.99,6,1,10,0.02
2013-10-2,78.6,64.8,53.6,67.1,60.9,53.3,99,89,59,30.12,30.02,7,1,14,0.02
2013-10-3,86.5,65.6,52.0,71.0,61.8,51.7,99,89,54,30.13,30.01,6,1,12,0.33
2013-10-4,80.4,69.8,64.4,71.0,66.4,64.1,99,90,65,30.09,30.03,6,1,11,0.02
2013-10-5,85.1,70.5,63.3,73.0,67.8,63.1,99,92,58,30.10,29.98,4,0,9,0.54
2013-10-6,82.2,73.2,59.4,73.0,66.8,58.2,99,82,61,29.99,29.73,10,2,17,0.18
2013-10-7,60.8,54.5,46.9,58.2,48.5,41.3,99,82,53,30.14,29.74,11,2,19,1.05
2013-10-8,71.1,55.3,44.4,57.1,46.6,42.8,99,77,38,30.33,30.14,8,1,12,0.02
2013-10-9,72.9,55.0,39.7,50.9,44.4,37.1,99,74,29,30.38,30.26,5,1,10,0.00
2013-10-10,71.8,52.5,39.2,53.7,46.2,38.9,99,82,37,30.28,30.14,8,1,11,0.00
2013-10-11,77.4,57.2,42.6,57.8,48.0,42.4,99,76,34,30.17,30.09,8,1,11,0.00
2013-10-12,80.8,61.5,44.8,62.2,54.4,44.3,99,80,49,30.17,30.09,5,1,8,0.00
2013-10-13,72.3,63.7,58.6,64.0,60.0,54.8,99,88,64,30.32,30.16,5,1,11,0.00
2013-10-14,64.4,55.3,41.4,54.8,46.4,41.1,99,74,52,30.39,30.28,11,3,17,0.00
2013-10-15,72.3,55.8,40.3,62.7,52.4,40.0,99,90,64,30.29,29.95,4,1,8,0.00
2013-10-16,72.3,60.5,51.6,64.8,58.9,49.4,99,95,74,29.96,29.80,8,2,13,0.00
2013-10-17,67.1,52.1,44.6,54.6,48.2,44.3,99,89,50,29.94,29.77,8,1,13,0.00
2013-10-18,65.5,54.0,45.3,48.3,45.0,39.2,99,75,41,29.99,29.85,9,2,16,0.00
2013-10-19,54.7,47.3,41.2,49.2,44.8,40.9,99,91,72,29.94,29.74,6,2,14,0.00
2013-10-20,60.6,47.7,38.7,42.6,39.8,35.4,99,77,40,29.99,29.89,8,2,17,0.00
2013-10-21,66.6,54.2,45.5,52.4,42.1,37.4,99,66,35,29.99,29.84,11,4,17,0.00
2013-10-22,50.4,44.7,38.5,49.7,37.6,31.3,99,78,50,29.95,29.84,10,3,17,0.00
2013-10-23,51.3,40.8,34.9,43.6,37.0,31.2,99,87,53,29.91,29.78,12,2,21,0.00
2013-10-24,45.9,36.3,32.7,38.7,34.9,32.5,99,95,70,30.12,29.90,8,2,12,0.00
2013-10-25,51.4,40.3,32.2,43.6,34.9,29.8,99,82,60,30.29,30.12,13,2,21,0.00
2013-10-26,45.3,40.4,34.2,39.7,30.2,26.3,99,68,52,30.20,29.85,11,4,19,0.00
2013-10-27,49.8,39.8,33.1,46.1,34.6,30.7,99,83,52,30.09,29.95,11,2,14,0.00
2013-10-28,58.6,42.6,32.2,43.9,36.7,31.8,99,81,51,30.36,30.08,11,2,17,0.00
2013-10-29,61.2,44.3,30.4,41.1,34.7,30.1,99,72,33,30.42,30.27,8,1,13,0.00
2013-10-30,69.3,49.6,32.9,51.0,39.3,32.7,99,72,31,30.27,30.06,7,1,9,0.00
2013-10-31,66.9,60.0,54.3,62.0,58.3,51.5,99,94,77,30.06,29.33,11,4,21,0.00
2013-11-1,61.2,54.3,47.8,60.7,47.2,40.4,99,77,64,29.71,29.26,17,5,25,0.00
2013-11-2,49.3,45.7,41.0,47.9,44.6,40.7,99,96,87,30.03,29.66,12,3,19,0.00
2013-11-3,45.0,37.4,26.8,40.9,31.0,24.2,99,79,58,30.50,30.03,11,3,15,0.00
2013-11-4,46.9,36.2,27.0,24.9,20.8,14.0,88,56,29,30.57,30.40,10,3,14,0.00
2013-11-5,56.3,47.9,39.0,38.9,31.8,23.7,64,54,46,30.45,30.29,8,3,14,0.00
2013-11-6,66.4,55.2,45.1,58.6,43.6,29.5,99,67,48,30.29,29.89,14,5,21,0.00
2013-11-7,53.4,42.3,36.9,53.2,35.4,26.2,99,77,59,30.11,29.91,19,6,27,0.00
2013-11-8,46.2,38.2,31.8,35.9,29.4,25.0,99,71,54,30.28,30.07,12,4,19,0.00
2013-11-9,56.7,45.2,31.1,43.8,32.1,26.1,83,62,37,30.26,29.87,12,5,22,0.00
2013-11-10,52.7,45.6,41.2,42.1,33.7,28.8,75,63,54,30.25,29.90,20,8,31,0.00
2013-11-11,46.9,39.1,30.6,41.1,32.6,27.8,99,79,50,30.25,30.02,13,4,20,0.00
2013-11-12,38.5,31.3,28.6,32.6,23.8,15.7,99,75,53,30.46,30.19,16,5,25,0.00
2013-11-13,41.4,33.0,28.0,24.2,19.8,15.3,72,59,41,30.49,30.23,11,4,21,0.00
2013-11-14,51.1,39.0,28.4,22.5,20.0,17.4,65,48,28,30.25,30.08,11,5,16,0.00
2013-11-15,55.8,45.2,37.0,28.9,22.5,17.3,56,41,24,30.14,30.07,10,3,16,0.00
2013-11-16,59.9,50.2,39.0,49.4,40.3,28.4,81,69,55,30.21,29.95,10,4,18,0.00
2013-11-17,63.1,58.4,52.0,59.5,53.6,38.7,99,85,47,29.95,29.41,24,8,46,0.00
2013-11-18,53.1,43.8,36.3,40.5,33.6,23.1,74,67,59,30.08,29.55,23,10,36,0.00
2013-11-19,36.7,33.4,25.7,27.3,24.7,22.0,93,71,61,30.42,30.08,12,4,19,0.00
2013-11-20,47.7,35.1,22.8,28.5,18.3,9.1,99,58,21,30.48,30.33,11,3,19,0.00
2013-11-21,42.4,38.9,36.3,41.6,30.8,13.1,99,76,37,30.40,30.20,10,4,18,0.00
2013-11-22,48.9,42.7,34.3,48.5,41.2,26.6,99,95,70,30.30,30.09,17,4,26,0.00
2013-11-23,39.2,30.1,21.9,28.8,19.9,6.6,80,66,47,30.35,30.17,21,9,31,0.00
2013-11-24,24.8,22.4,18.3,17.5,12.1,7.5,86,64,49,30.49,30.35,20,9,30,0.00
2013-11-25,34.0,25.8,16.9,26.0,14.6,8.9,91,64,38,30.43,30.14,13,5,21,0.00
2013-11-26,34.5,32.2,30.6,31.5,28.2,18.5,99,86,52,30.15,29.82,6,2,10,0.00
2013-11-27,33.3,28.8,24.4,33.0,23.3,15.6,99,80,63,30.09,29.76,18,8,27,0.00
2013-11-28,31.1,26.1,23.0,22.1,18.4,16.1,88,72,60,30.39,30.09,11,4,21,0.00
2013-11-29,38.8,26.3,18.0,26.4,21.5,16.8,96,83,57,30.62,30.39,4,1,7,0.00
2013-11-30,39.9,33.1,23.9,25.3,22.8,17.1,79,66,54,30.61,30.16,10,5,15,0.00
2013-12-1,41.4,35.5,30.9,30.1,27.9,24.8,82,74,63,30.17,29.97,5,2,10,0.00
2013-12-2,44.8,35.2,27.9,36.7,30.8,26.6,96,84,69,29.97,29.86,6,1,9,0.00
2013-12-3,43.7,36.0,25.9,38.4,31.3,25.7,99,84,65,29.94,29.88,6,1,10,0.00
2013-12-4,56.7,49.1,37.9,47.1,42.5,36.7,99,79,62,29.97,29.79,11,3,16,0.00
2013-12-5,59.9,49.3,33.1,55.5,43.7,31.9,99,81,71,30.10,29.75,16,6,27,0.00
2013-12-6,36.5,30.9,25.9,32.8,28.4,22.3,99,91,68,30.31,30.08,9,2,12,0.00
2013-12-7,26.8,24.3,22.6,26.4,17.5,13.2,99,75,64,30.58,30.30,11,4,17,0.00
2013-12-8,28.4,25.0,19.6,25.7,17.1,13.7,90,72,56,30.57,30.05,11,3,17,0.00
2013-12-9,35.4,31.5,25.9,34.5,26.6,16.5,99,83,64,30.11,29.91,14,5,21,0.00
2013-12-10,28.9,24.8,21.7,19.3,13.3,2.5,90,63,34,30.18,29.95,15,5,32,0.00
2013-12-11,25.2,21.6,17.8,22.2,16.0,10.4,98,79,68,30.35,30.18,12,5,20,0.00
2013-12-12,21.6,17.2,13.6,11.0,5.2,-2.7,88,60,39,30.39,30.17,12,6,18,0.00
2013-12-13,33.4,23.8,18.0,21.2,14.2,5.7,89,67,51,30.26,30.15,8,3,17,0.00
2013-12-14,31.1,27.0,22.1,30.7,26.1,21.1,99,96,89,30.26,29.65,6,1,12,0.00
2013-12-15,31.8,24.6,16.2,31.6,22.5,14.8,99,92,74,29.98,29.63,15,5,26,0.00
2013-12-16,29.3,17.3,10.8,19.2,13.3,8.2,95,85,61,30.14,29.98,8,2,11,0.00
2013-12-17,29.7,25.2,18.5,25.5,21.6,12.7,99,86,69,30.01,29.91,11,4,18,0.00
2013-12-18,32.0,26.9,23.5,25.0,21.0,15.9,95,78,67,30.12,29.97,9,4,17,0.00
2013-12-19,49.6,38.1,25.2,32.7,25.8,17.0,73,61,48,30.02,29.93,8,4,13,0.00
2013-12-20,52.9,44.5,40.6,52.6,41.8,32.2,99,91,69,29.96,29.80,8,4,12,0.00
2013-12-21,55.4,46.3,37.2,55.1,46.1,37.0,99,99,99,29.83,29.55,9,3,14,0.00
2013-12-22,62.4,45.9,34.7,58.8,44.9,34.5,99,96,78,29.98,29.47,20,6,30,0.00
2013-12-23,38.5,33.1,28.6,38.2,30.2,21.3,99,89,70,30.29,29.98,12,5,18,0.00
2013-12-24,28.6,20.4,9.5,23.6,16.1,4.2,99,83,66,30.50,30.24,14,5,21,0.00
2013-12-25,26.6,17.4,3.9,18.8,10.6,1.3,94,75,56,30.48,30.15,8,2,14,0.00
2013-12-26,33.8,27.3,21.2,30.1,22.6,15.7,99,83,67,30.31,30.06,16,4,24,0.00
2013-12-27,41.9,32.1,23.4,29.6,25.1,17.1,87,75,59,30.32,30.15,8,3,11,0.00
2013-12-28,53.4,43.5,36.1,34.4,30.5,27.8,73,61,46,30.16,29.97,11,4,14,0.00
2013-12-29,43.5,39.1,27.0,41.0,31.0,25.1,99,74,51,29.98,29.69,14,4,18,0.00
2013-12-30,27.0,18.6,15.1,26.7,14.8,9.5,99,85,69,30.25,29.91,1,0,11,0.00
2013-12-31,20.7,18.5,16.3,20.2,15.0,8.7,98,86,71,30.27,30.02,17,3,24,0.00
2014-1-1,26.1,19.9,18.1,24.8,17.5,15.1,98,90,80,30.35,30.14,7,2,14,0.00
2014-1-2,19.6,15.9,9.0,18.2,14.6,6.9,97,94,84,30.14,29.84,21,8,31,0.00